sensor_id;sensor_type;location;lat;lon;timestamp;pressure;altitude;pressure_sealevel;temperature;humidity
77469;BME280;68840;50.272;12.818;2023-05-01T00:00:07;96291;;;6.7;54.5
77469;BME280;68840;50.272;12.818;2023-05-01T00:02:05;96291;;;6.8;54.2
77469;BME280;68840;50.272;12.818;2023-05-01T00:04:05;96290;;;6.8;54.0
77469;BME280;68840;50.272;12.818;2023-05-01T00:06:06;96288;;;6.8;53.9
77469;BME280;68840;50.272;12.818;2023-05-01T00:08:05;96287;;;6.8;53.7
77469;BME280;68840;50.272;12.818;2023-05-01T00:10:06;96285;;;6.8;53.9
77469;BME280;68840;50.272;12.818;2023-05-01T00:12:05;96281;;;6.8;53.2
77469;BME280;68840;50.272;12.818;2023-05-01T00:14:05;96278;;;6.8;53.0
77469;BME280;68840;50.272;12.818;2023-05-01T00:16:07;96274;;;6.9;53.1
77469;BME280;68840;50.272;12.818;2023-05-01T00:18:05;96271;;;6.8;52.8
77469;BME280;68840;50.272;12.818;2023-05-01T00:20:06;96270;;;6.8;52.7
77469;BME280;68840;50.272;12.818;2023-05-01T00:22:05;96271;;;6.8;52.7
77469;BME280;68840;50.272;12.818;2023-05-01T00:24:05;96267;;;6.8;52.7
77469;BME280;68840;50.272;12.818;2023-05-01T00:26:06;96264;;;6.8;52.9
77469;BME280;68840;50.272;12.818;2023-05-01T00:28:06;96262;;;6.8;52.9
77469;BME280;68840;50.272;12.818;2023-05-01T00:30:06;96260;;;6.8;52.8
77469;BME280;68840;50.272;12.818;2023-05-01T00:32:06;96257;;;6.8;52.6
77469;BME280;68840;50.272;12.818;2023-05-01T00:34:05;96259;;;6.8;52.9
77469;BME280;68840;50.272;12.818;2023-05-01T00:36:05;96259;;;6.8;53.2
77469;BME280;68840;50.272;12.818;2023-05-01T00:38:06;96256;;;6.8;52.6
77469;BME280;68840;50.272;12.818;2023-05-01T00:40:06;96253;;;6.8;52.9
77469;BME280;68840;50.272;12.818;2023-05-01T00:42:05;96249;;;6.7;52.6
77469;BME280;68840;50.272;12.818;2023-05-01T00:44:05;96247;;;6.7;52.7
77469;BME280;68840;50.272;12.818;2023-05-01T00:46:06;96244;;;6.7;53.0
77469;BME280;68840;50.272;12.818;2023-05-01T00:48:05;96242;;;6.7;53.0
77469;BME280;68840;50.272;12.818;2023-05-01T00:50:06;96241;;;6.7;52.8
77469;BME280;68840;50.272;12.818;2023-05-01T00:52:05;96236;;;6.6;52.6
77469;BME280;68840;50.272;12.818;2023-05-01T00:54:05;96230;;;6.6;52.9
77469;BME280;68840;50.272;12.818;2023-05-01T00:56:06;96231;;;6.6;53.0
77469;BME280;68840;50.272;12.818;2023-05-01T00:58:05;96230;;;6.5;54.2
77469;BME280;68840;50.272;12.818;2023-05-01T01:00:10;96229;;;6.5;54.1
77469;BME280;68840;50.272;12.818;2023-05-01T01:02:05;96230;;;6.5;54.6
77469;BME280;68840;50.272;12.818;2023-05-01T01:04:05;96225;;;6.4;53.9
77469;BME280;68840;50.272;12.818;2023-05-01T01:06:12;96219;;;6.4;53.0
77469;BME280;68840;50.272;12.818;2023-05-01T01:08:14;96215;;;6.4;53.6
77469;BME280;68840;50.272;12.818;2023-05-01T01:10:12;96211;;;6.4;54.2
77469;BME280;68840;50.272;12.818;2023-05-01T01:12:15;96212;;;6.3;54.9
77469;BME280;68840;50.272;12.818;2023-05-01T01:14:09;96209;;;6.3;55.0
77469;BME280;68840;50.272;12.818;2023-05-01T01:16:11;96207;;;6.3;54.8
77469;BME280;68840;50.272;12.818;2023-05-01T01:18:10;96207;;;6.3;55.0
77469;BME280;68840;50.272;12.818;2023-05-01T01:20:18;96206;;;6.3;55.2
77469;BME280;68840;50.272;12.818;2023-05-01T01:22:12;96207;;;6.3;55.3
77469;BME280;68840;50.272;12.818;2023-05-01T01:24:21;96200;;;6.3;54.6
77469;BME280;68840;50.272;12.818;2023-05-01T01:26:17;96199;;;6.4;54.7
77469;BME280;68840;50.272;12.818;2023-05-01T01:28:21;96196;;;6.4;55.3
77469;BME280;68840;50.272;12.818;2023-05-01T01:30:23;96193;;;6.4;55.2
77469;BME280;68840;50.272;12.818;2023-05-01T01:32:20;96191;;;6.4;55.0
77469;BME280;68840;50.272;12.818;2023-05-01T01:34:12;96192;;;6.4;54.9
77469;BME280;68840;50.272;12.818;2023-05-01T01:36:09;96194;;;6.4;54.8
77469;BME280;68840;50.272;12.818;2023-05-01T01:38:09;96195;;;6.4;54.3
77469;BME280;68840;50.272;12.818;2023-05-01T01:40:10;96193;;;6.3;54.1
77469;BME280;68840;50.272;12.818;2023-05-01T01:42:08;96192;;;6.3;54.1
77469;BME280;68840;50.272;12.818;2023-05-01T01:44:09;96192;;;6.3;54.1
77469;BME280;68840;50.272;12.818;2023-05-01T01:46:07;96190;;;6.3;53.9
77469;BME280;68840;50.272;12.818;2023-05-01T01:48:09;96188;;;6.2;54.0
77469;BME280;68840;50.272;12.818;2023-05-01T01:50:07;96189;;;6.2;54.2
77469;BME280;68840;50.272;12.818;2023-05-01T01:52:06;96187;;;6.2;54.2
77469;BME280;68840;50.272;12.818;2023-05-01T01:54:05;96187;;;6.2;53.9
77469;BME280;68840;50.272;12.818;2023-05-01T01:56:06;96186;;;6.1;54.3
77469;BME280;68840;50.272;12.818;2023-05-01T01:58:08;96185;;;6.1;54.4
77469;BME280;68840;50.272;12.818;2023-05-01T02:00:10;96184;;;6.1;54.1
77469;BME280;68840;50.272;12.818;2023-05-01T02:02:06;96180;;;6.0;54.3
77469;BME280;68840;50.272;12.818;2023-05-01T02:04:06;96177;;;6.0;54.7
77469;BME280;68840;50.272;12.818;2023-05-01T02:06:06;96176;;;6.0;55.3
77469;BME280;68840;50.272;12.818;2023-05-01T02:08:06;96174;;;6.0;55.2
77469;BME280;68840;50.272;12.818;2023-05-01T02:10:06;96170;;;5.9;54.2
77469;BME280;68840;50.272;12.818;2023-05-01T02:12:07;96168;;;5.9;54.5
77469;BME280;68840;50.272;12.818;2023-05-01T02:14:07;96166;;;5.9;54.6
77469;BME280;68840;50.272;12.818;2023-05-01T02:16:06;96164;;;5.9;54.6
77469;BME280;68840;50.272;12.818;2023-05-01T02:18:06;96162;;;5.8;54.2
77469;BME280;68840;50.272;12.818;2023-05-01T02:20:06;96158;;;5.8;54.6
77469;BME280;68840;50.272;12.818;2023-05-01T02:22:06;96155;;;5.8;54.9
77469;BME280;68840;50.272;12.818;2023-05-01T02:24:06;96156;;;5.7;55.0
77469;BME280;68840;50.272;12.818;2023-05-01T02:26:06;96156;;;5.7;55.5
77469;BME280;68840;50.272;12.818;2023-05-01T02:28:08;96153;;;5.7;56.1
77469;BME280;68840;50.272;12.818;2023-05-01T02:30:07;96149;;;5.7;55.3
77469;BME280;68840;50.272;12.818;2023-05-01T02:32:05;96147;;;5.6;55.2
77469;BME280;68840;50.272;12.818;2023-05-01T02:34:05;96145;;;5.6;55.2
77469;BME280;68840;50.272;12.818;2023-05-01T02:36:05;96140;;;5.6;54.8
77469;BME280;68840;50.272;12.818;2023-05-01T02:38:05;96139;;;5.6;55.2
77469;BME280;68840;50.272;12.818;2023-05-01T02:40:07;96141;;;5.5;56.0
77469;BME280;68840;50.272;12.818;2023-05-01T02:42:08;96140;;;5.5;55.6
77469;BME280;68840;50.272;12.818;2023-05-01T02:44:07;96134;;;5.5;56.0
77469;BME280;68840;50.272;12.818;2023-05-01T02:46:06;96129;;;5.5;56.7
77469;BME280;68840;50.272;12.818;2023-05-01T02:48:06;96124;;;5.4;57.3
77469;BME280;68840;50.272;12.818;2023-05-01T02:50:06;96124;;;5.4;57.3
77469;BME280;68840;50.272;12.818;2023-05-01T02:52:06;96123;;;5.4;57.0
77469;BME280;68840;50.272;12.818;2023-05-01T02:54:06;96122;;;5.3;57.2
77469;BME280;68840;50.272;12.818;2023-05-01T02:56:07;96122;;;5.3;57.1
77469;BME280;68840;50.272;12.818;2023-05-01T02:58:06;96124;;;5.3;57.3
77469;BME280;68840;50.272;12.818;2023-05-01T03:00:08;96121;;;5.3;57.8
77469;BME280;68840;50.272;12.818;2023-05-01T03:02:06;96119;;;5.3;57.7
77469;BME280;68840;50.272;12.818;2023-05-01T03:04:05;96115;;;5.3;57.7
77469;BME280;68840;50.272;12.818;2023-05-01T03:06:05;96112;;;5.3;57.4
77469;BME280;68840;50.272;12.818;2023-05-01T03:08:05;96113;;;5.3;56.8
77469;BME280;68840;50.272;12.818;2023-05-01T03:10:06;96113;;;5.3;56.6
77469;BME280;68840;50.272;12.818;2023-05-01T03:12:05;96116;;;5.4;56.5
77469;BME280;68840;50.272;12.818;2023-05-01T03:14:05;96116;;;5.4;56.8
77469;BME280;68840;50.272;12.818;2023-05-01T03:16:06;96116;;;5.3;56.9
77469;BME280;68840;50.272;12.818;2023-05-01T03:18:05;96119;;;5.3;57.3
77469;BME280;68840;50.272;12.818;2023-05-01T03:20:06;96120;;;5.3;57.5
77469;BME280;68840;50.272;12.818;2023-05-01T03:22:05;96119;;;5.3;58.0
77469;BME280;68840;50.272;12.818;2023-05-01T03:24:06;96119;;;5.3;58.2
77469;BME280;68840;50.272;12.818;2023-05-01T03:26:06;96118;;;5.3;58.3
77469;BME280;68840;50.272;12.818;2023-05-01T03:28:05;96117;;;5.3;58.1
77469;BME280;68840;50.272;12.818;2023-05-01T03:30:06;96119;;;5.3;57.7
77469;BME280;68840;50.272;12.818;2023-05-01T03:32:05;96119;;;5.3;57.0
77469;BME280;68840;50.272;12.818;2023-05-01T03:34:05;96116;;;5.3;56.5
77469;BME280;68840;50.272;12.818;2023-05-01T03:36:05;96115;;;5.3;55.9
77469;BME280;68840;50.272;12.818;2023-05-01T03:38:05;96113;;;5.3;55.8
77469;BME280;68840;50.272;12.818;2023-05-01T03:40:07;96109;;;5.2;55.7
77469;BME280;68840;50.272;12.818;2023-05-01T03:42:05;96111;;;5.2;55.9
77469;BME280;68840;50.272;12.818;2023-05-01T03:44:05;96111;;;5.1;56.4
77469;BME280;68840;50.272;12.818;2023-05-01T03:46:05;96109;;;5.1;56.3
77469;BME280;68840;50.272;12.818;2023-05-01T03:48:05;96107;;;5.1;55.8
77469;BME280;68840;50.272;12.818;2023-05-01T03:50:06;96103;;;5.1;55.5
77469;BME280;68840;50.272;12.818;2023-05-01T03:52:05;96102;;;5.1;55.5
77469;BME280;68840;50.272;12.818;2023-05-01T03:54:06;96101;;;5.0;55.7
77469;BME280;68840;50.272;12.818;2023-05-01T03:56:05;96100;;;5.0;55.6
77469;BME280;68840;50.272;12.818;2023-05-01T03:58:06;96100;;;5.0;56.0
77469;BME280;68840;50.272;12.818;2023-05-01T04:00:06;96100;;;5.0;56.5
77469;BME280;68840;50.272;12.818;2023-05-01T04:02:05;96098;;;5.0;58.0
77469;BME280;68840;50.272;12.818;2023-05-01T04:04:06;96100;;;5.0;58.8
77469;BME280;68840;50.272;12.818;2023-05-01T04:06:05;96100;;;5.1;59.1
77469;BME280;68840;50.272;12.818;2023-05-01T04:08:06;96099;;;5.1;58.6
77469;BME280;68840;50.272;12.818;2023-05-01T04:10:08;96101;;;5.1;58.7
77469;BME280;68840;50.272;12.818;2023-05-01T04:12:05;96104;;;5.2;58.6
77469;BME280;68840;50.272;12.818;2023-05-01T04:14:05;96106;;;5.3;58.5
77469;BME280;68840;50.272;12.818;2023-05-01T04:16:06;96106;;;5.4;58.5
77469;BME280;68840;50.272;12.818;2023-05-01T04:18:05;96107;;;5.5;58.6
77469;BME280;68840;50.272;12.818;2023-05-01T04:20:06;96106;;;5.6;58.2
77469;BME280;68840;50.272;12.818;2023-05-01T04:22:05;96107;;;5.6;58.0
77469;BME280;68840;50.272;12.818;2023-05-01T04:24:05;96106;;;5.7;57.8
77469;BME280;68840;50.272;12.818;2023-05-01T04:26:05;96108;;;5.8;57.8
77469;BME280;68840;50.272;12.818;2023-05-01T04:28:05;96113;;;5.9;57.5
77469;BME280;68840;50.272;12.818;2023-05-01T04:30:06;96112;;;5.9;57.4
77469;BME280;68840;50.272;12.818;2023-05-01T04:32:05;96112;;;6.0;57.0
77469;BME280;68840;50.272;12.818;2023-05-01T04:34:05;96109;;;6.2;56.7
77469;BME280;68840;50.272;12.818;2023-05-01T04:36:06;96107;;;6.4;56.3
77469;BME280;68840;50.272;12.818;2023-05-01T04:38:06;96107;;;6.6;55.9
77469;BME280;68840;50.272;12.818;2023-05-01T04:40:06;96102;;;6.7;55.8
77469;BME280;68840;50.272;12.818;2023-05-01T04:42:05;96102;;;6.8;55.0
77469;BME280;68840;50.272;12.818;2023-05-01T04:44:05;96104;;;6.9;55.2
77469;BME280;68840;50.272;12.818;2023-05-01T04:46:05;96102;;;7.0;54.6
77469;BME280;68840;50.272;12.818;2023-05-01T04:48:05;96105;;;7.1;54.9
77469;BME280;68840;50.272;12.818;2023-05-01T04:50:05;96107;;;7.2;55.2
77469;BME280;68840;50.272;12.818;2023-05-01T04:52:05;96111;;;7.4;54.5
77469;BME280;68840;50.272;12.818;2023-05-01T04:54:05;96112;;;7.6;54.3
77469;BME280;68840;50.272;12.818;2023-05-01T04:56:05;96112;;;7.8;53.5
77469;BME280;68840;50.272;12.818;2023-05-01T04:58:05;96111;;;8.1;52.8
77469;BME280;68840;50.272;12.818;2023-05-01T05:00:07;96106;;;8.3;52.6
77469;BME280;68840;50.272;12.818;2023-05-01T05:02:05;96105;;;8.5;52.0
77469;BME280;68840;50.272;12.818;2023-05-01T05:04:06;96105;;;8.7;50.8
77469;BME280;68840;50.272;12.818;2023-05-01T05:06:05;96109;;;8.9;50.7
77469;BME280;68840;50.272;12.818;2023-05-01T05:08:05;96112;;;9.0;49.9
77469;BME280;68840;50.272;12.818;2023-05-01T05:10:05;96108;;;9.1;50.2
77469;BME280;68840;50.272;12.818;2023-05-01T05:12:05;96107;;;9.3;50.2
77469;BME280;68840;50.272;12.818;2023-05-01T05:14:05;96105;;;9.5;50.1
77469;BME280;68840;50.272;12.818;2023-05-01T05:16:05;96102;;;9.7;49.5
77469;BME280;68840;50.272;12.818;2023-05-01T05:18:05;96102;;;10.0;49.3
77469;BME280;68840;50.272;12.818;2023-05-01T05:20:06;96102;;;10.3;48.7
77469;BME280;68840;50.272;12.818;2023-05-01T05:22:05;96098;;;10.6;48.1
77469;BME280;68840;50.272;12.818;2023-05-01T05:24:05;96098;;;10.9;47.5
77469;BME280;68840;50.272;12.818;2023-05-01T05:26:05;96097;;;11.1;46.9
77469;BME280;68840;50.272;12.818;2023-05-01T05:28:05;96098;;;11.4;46.2
77469;BME280;68840;50.272;12.818;2023-05-01T05:30:06;96097;;;11.7;46.2
77469;BME280;68840;50.272;12.818;2023-05-01T05:32:05;96097;;;11.9;44.9
77469;BME280;68840;50.272;12.818;2023-05-01T05:34:05;96095;;;12.1;44.8
77469;BME280;68840;50.272;12.818;2023-05-01T05:36:05;96095;;;12.2;44.9
77469;BME280;68840;50.272;12.818;2023-05-01T05:38:05;96095;;;12.4;44.5
77469;BME280;68840;50.272;12.818;2023-05-01T05:40:06;96093;;;12.6;43.9
77469;BME280;68840;50.272;12.818;2023-05-01T05:42:05;96090;;;12.8;43.6
77469;BME280;68840;50.272;12.818;2023-05-01T05:44:05;96089;;;12.8;44.2
77469;BME280;68840;50.272;12.818;2023-05-01T05:46:05;96087;;;12.9;43.0
77469;BME280;68840;50.272;12.818;2023-05-01T05:48:05;96088;;;12.9;43.4
77469;BME280;68840;50.272;12.818;2023-05-01T05:50:06;96086;;;12.9;42.5
77469;BME280;68840;50.272;12.818;2023-05-01T05:52:05;96086;;;13.0;43.2
77469;BME280;68840;50.272;12.818;2023-05-01T05:54:05;96087;;;13.1;43.3
77469;BME280;68840;50.272;12.818;2023-05-01T05:56:06;96088;;;13.1;43.7
77469;BME280;68840;50.272;12.818;2023-05-01T05:58:05;96088;;;13.0;43.4
77469;BME280;68840;50.272;12.818;2023-05-01T06:00:06;96086;;;12.9;44.5
77469;BME280;68840;50.272;12.818;2023-05-01T06:02:06;96085;;;12.8;44.8
77469;BME280;68840;50.272;12.818;2023-05-01T06:04:05;96084;;;12.6;45.3
77469;BME280;68840;50.272;12.818;2023-05-01T06:06:05;96083;;;12.4;44.9
77469;BME280;68840;50.272;12.818;2023-05-01T06:08:05;96077;;;12.1;44.5
77469;BME280;68840;50.272;12.818;2023-05-01T06:10:06;96076;;;11.9;45.0
77469;BME280;68840;50.272;12.818;2023-05-01T06:12:05;96075;;;11.7;45.2
77469;BME280;68840;50.272;12.818;2023-05-01T06:16:06;96075;;;11.4;47.4
77469;BME280;68840;50.272;12.818;2023-05-01T06:18:05;96073;;;11.3;47.6
77469;BME280;68840;50.272;12.818;2023-05-01T06:20:06;96071;;;11.2;47.1
77469;BME280;68840;50.272;12.818;2023-05-01T06:22:06;96071;;;11.2;47.3
77469;BME280;68840;50.272;12.818;2023-05-01T06:24:05;96067;;;11.1;48.2
77469;BME280;68840;50.272;12.818;2023-05-01T06:26:06;96067;;;11.1;48.6
77469;BME280;68840;50.272;12.818;2023-05-01T06:28:05;96063;;;11.1;48.0
77469;BME280;68840;50.272;12.818;2023-05-01T06:30:07;96062;;;11.0;49.5
77469;BME280;68840;50.272;12.818;2023-05-01T06:32:05;96060;;;11.0;49.2
77469;BME280;68840;50.272;12.818;2023-05-01T06:34:05;96060;;;11.0;48.8
77469;BME280;68840;50.272;12.818;2023-05-01T06:36:05;96058;;;11.0;50.1
77469;BME280;68840;50.272;12.818;2023-05-01T06:38:05;96058;;;11.0;49.1
77469;BME280;68840;50.272;12.818;2023-05-01T06:40:07;96059;;;11.0;48.8
77469;BME280;68840;50.272;12.818;2023-05-01T06:42:06;96059;;;11.0;49.0
77469;BME280;68840;50.272;12.818;2023-05-01T06:44:05;96057;;;11.0;49.0
77469;BME280;68840;50.272;12.818;2023-05-01T06:46:05;96058;;;11.0;49.1
77469;BME280;68840;50.272;12.818;2023-05-01T06:48:05;96055;;;11.0;49.9
77469;BME280;68840;50.272;12.818;2023-05-01T06:50:07;96051;;;11.1;50.6
77469;BME280;68840;50.272;12.818;2023-05-01T06:52:05;96049;;;11.1;48.3
77469;BME280;68840;50.272;12.818;2023-05-01T06:54:05;96051;;;11.1;48.5
77469;BME280;68840;50.272;12.818;2023-05-01T06:56:05;96051;;;11.2;48.8
77469;BME280;68840;50.272;12.818;2023-05-01T06:58:05;96051;;;11.2;48.7
77469;BME280;68840;50.272;12.818;2023-05-01T07:00:06;96049;;;11.2;49.1
77469;BME280;68840;50.272;12.818;2023-05-01T07:02:05;96047;;;11.3;48.9
77469;BME280;68840;50.272;12.818;2023-05-01T07:04:06;96047;;;11.3;47.9
77469;BME280;68840;50.272;12.818;2023-05-01T07:06:05;96049;;;11.3;49.0
77469;BME280;68840;50.272;12.818;2023-05-01T07:08:05;96050;;;11.4;49.7
77469;BME280;68840;50.272;12.818;2023-05-01T07:10:05;96048;;;11.4;49.0
77469;BME280;68840;50.272;12.818;2023-05-01T07:12:05;96046;;;11.5;49.2
77469;BME280;68840;50.272;12.818;2023-05-01T07:14:05;96045;;;11.5;48.8
77469;BME280;68840;50.272;12.818;2023-05-01T07:16:06;96044;;;11.6;49.8
77469;BME280;68840;50.272;12.818;2023-05-01T07:18:05;96040;;;11.6;47.7
77469;BME280;68840;50.272;12.818;2023-05-01T07:20:06;96036;;;11.7;49.6
77469;BME280;68840;50.272;12.818;2023-05-01T07:22:05;96031;;;11.8;49.2
77469;BME280;68840;50.272;12.818;2023-05-01T07:24:05;96027;;;11.8;49.3
77469;BME280;68840;50.272;12.818;2023-05-01T07:26:05;96025;;;11.9;48.3
77469;BME280;68840;50.272;12.818;2023-05-01T07:28:06;96026;;;12.0;48.1
77469;BME280;68840;50.272;12.818;2023-05-01T07:30:06;96024;;;12.1;49.1
77469;BME280;68840;50.272;12.818;2023-05-01T07:32:06;96020;;;12.2;48.2
77469;BME280;68840;50.272;12.818;2023-05-01T07:34:05;96019;;;12.4;47.7
77469;BME280;68840;50.272;12.818;2023-05-01T07:36:05;96020;;;12.4;47.5
77469;BME280;68840;50.272;12.818;2023-05-01T07:38:05;96022;;;12.5;47.3
77469;BME280;68840;50.272;12.818;2023-05-01T07:40:06;96026;;;12.6;46.7
77469;BME280;68840;50.272;12.818;2023-05-01T07:42:05;96028;;;12.7;46.9
77469;BME280;68840;50.272;12.818;2023-05-01T07:44:05;96028;;;12.9;47.3
77469;BME280;68840;50.272;12.818;2023-05-01T07:46:06;96025;;;12.9;47.2
77469;BME280;68840;50.272;12.818;2023-05-01T07:48:05;96024;;;13.0;45.2
77469;BME280;68840;50.272;12.818;2023-05-01T07:50:09;96024;;;13.1;44.3
77469;BME280;68840;50.272;12.818;2023-05-01T07:52:06;96022;;;13.1;44.8
77469;BME280;68840;50.272;12.818;2023-05-01T07:54:05;96020;;;13.1;46.0
77469;BME280;68840;50.272;12.818;2023-05-01T07:56:06;96019;;;13.1;46.6
77469;BME280;68840;50.272;12.818;2023-05-01T07:58:06;96018;;;13.2;46.4
77469;BME280;68840;50.272;12.818;2023-05-01T08:00:06;96013;;;13.3;43.8
77469;BME280;68840;50.272;12.818;2023-05-01T08:02:05;96011;;;13.3;44.6
77469;BME280;68840;50.272;12.818;2023-05-01T08:04:06;96008;;;13.4;45.4
77469;BME280;68840;50.272;12.818;2023-05-01T08:06:06;96005;;;13.4;45.5
77469;BME280;68840;50.272;12.818;2023-05-01T08:08:05;96001;;;13.4;46.2
77469;BME280;68840;50.272;12.818;2023-05-01T08:10:05;95999;;;13.5;46.7
77469;BME280;68840;50.272;12.818;2023-05-01T08:12:06;95996;;;13.6;45.1
77469;BME280;68840;50.272;12.818;2023-05-01T08:14:05;95997;;;13.7;46.3
77469;BME280;68840;50.272;12.818;2023-05-01T08:16:05;95999;;;13.7;44.8
77469;BME280;68840;50.272;12.818;2023-05-01T08:18:05;95997;;;13.8;44.1
77469;BME280;68840;50.272;12.818;2023-05-01T08:20:06;95997;;;13.9;45.3
77469;BME280;68840;50.272;12.818;2023-05-01T08:22:05;95994;;;13.9;44.7
77469;BME280;68840;50.272;12.818;2023-05-01T08:24:08;95992;;;14.0;44.4
77469;BME280;68840;50.272;12.818;2023-05-01T08:26:05;95989;;;14.1;45.3
77469;BME280;68840;50.272;12.818;2023-05-01T08:28:05;95983;;;14.2;46.4
77469;BME280;68840;50.272;12.818;2023-05-01T08:30:06;95980;;;14.4;44.8
77469;BME280;68840;50.272;12.818;2023-05-01T08:32:05;95976;;;14.5;46.8
77469;BME280;68840;50.272;12.818;2023-05-01T08:34:05;95975;;;14.6;44.9
77469;BME280;68840;50.272;12.818;2023-05-01T08:36:05;95975;;;14.7;44.8
77469;BME280;68840;50.272;12.818;2023-05-01T08:38:05;95972;;;14.8;44.2
77469;BME280;68840;50.272;12.818;2023-05-01T08:40:07;95967;;;14.8;44.5
77469;BME280;68840;50.272;12.818;2023-05-01T08:42:05;95964;;;14.9;43.4
77469;BME280;68840;50.272;12.818;2023-05-01T08:44:07;95959;;;14.9;44.7
77469;BME280;68840;50.272;12.818;2023-05-01T08:46:07;95960;;;15.0;44.2
77469;BME280;68840;50.272;12.818;2023-05-01T08:48:05;95960;;;15.0;42.8
77469;BME280;68840;50.272;12.818;2023-05-01T08:50:09;95955;;;15.1;45.0
77469;BME280;68840;50.272;12.818;2023-05-01T08:52:05;95952;;;15.1;44.5
77469;BME280;68840;50.272;12.818;2023-05-01T08:54:07;95947;;;15.3;43.6
77469;BME280;68840;50.272;12.818;2023-05-01T08:56:06;95943;;;15.4;44.9
77469;BME280;68840;50.272;12.818;2023-05-01T08:58:06;95942;;;15.5;43.7
77469;BME280;68840;50.272;12.818;2023-05-01T09:00:07;95942;;;15.6;43.5
77469;BME280;68840;50.272;12.818;2023-05-01T09:02:07;95946;;;15.6;43.7
77469;BME280;68840;50.272;12.818;2023-05-01T09:04:06;95948;;;15.7;43.9
77469;BME280;68840;50.272;12.818;2023-05-01T09:06:06;95946;;;15.7;42.5
77469;BME280;68840;50.272;12.818;2023-05-01T09:08:05;95938;;;15.8;43.8
77469;BME280;68840;50.272;12.818;2023-05-01T09:10:06;95938;;;15.9;44.0
77469;BME280;68840;50.272;12.818;2023-05-01T09:12:13;95942;;;16.0;42.4
77469;BME280;68840;50.272;12.818;2023-05-01T09:14:07;95939;;;16.0;41.2
77469;BME280;68840;50.272;12.818;2023-05-01T09:16:05;95935;;;16.0;42.7
77469;BME280;68840;50.272;12.818;2023-05-01T09:18:07;95933;;;15.9;43.2
77469;BME280;68840;50.272;12.818;2023-05-01T09:20:06;95933;;;16.0;43.0
77469;BME280;68840;50.272;12.818;2023-05-01T09:22:05;95934;;;16.0;43.6
77469;BME280;68840;50.272;12.818;2023-05-01T09:24:06;95930;;;16.1;41.2
77469;BME280;68840;50.272;12.818;2023-05-01T09:26:06;95927;;;16.3;40.3
77469;BME280;68840;50.272;12.818;2023-05-01T09:28:06;95920;;;16.4;43.2
77469;BME280;68840;50.272;12.818;2023-05-01T09:30:06;95913;;;16.5;43.7
77469;BME280;68840;50.272;12.818;2023-05-01T09:32:13;95911;;;16.6;42.6
77469;BME280;68840;50.272;12.818;2023-05-01T09:34:06;95914;;;16.7;42.0
77469;BME280;68840;50.272;12.818;2023-05-01T09:36:05;95913;;;16.8;41.1
77469;BME280;68840;50.272;12.818;2023-05-01T09:38:05;95910;;;16.8;43.1
77469;BME280;68840;50.272;12.818;2023-05-01T09:40:08;95906;;;16.8;44.5
77469;BME280;68840;50.272;12.818;2023-05-01T09:42:06;95901;;;16.9;43.5
77469;BME280;68840;50.272;12.818;2023-05-01T09:44:16;95900;;;16.9;41.9
77469;BME280;68840;50.272;12.818;2023-05-01T09:46:08;95899;;;16.9;41.3
77469;BME280;68840;50.272;12.818;2023-05-01T09:48:08;95896;;;16.8;41.0
77469;BME280;68840;50.272;12.818;2023-05-01T09:50:06;95893;;;16.8;43.7
77469;BME280;68840;50.272;12.818;2023-05-01T09:52:13;95889;;;16.8;42.2
77469;BME280;68840;50.272;12.818;2023-05-01T09:54:17;95885;;;16.8;42.9
77469;BME280;68840;50.272;12.818;2023-05-01T09:56:06;95889;;;16.8;39.7
77469;BME280;68840;50.272;12.818;2023-05-01T09:58:05;95890;;;16.8;39.6
77469;BME280;68840;50.272;12.818;2023-05-01T10:00:07;95888;;;16.7;39.7
77469;BME280;68840;50.272;12.818;2023-05-01T10:02:05;95886;;;16.8;40.3
77469;BME280;68840;50.272;12.818;2023-05-01T10:04:05;95888;;;16.8;43.0
77469;BME280;68840;50.272;12.818;2023-05-01T10:06:06;95886;;;17.0;40.0
77469;BME280;68840;50.272;12.818;2023-05-01T10:08:09;95885;;;17.1;42.3
77469;BME280;68840;50.272;12.818;2023-05-01T10:10:15;95883;;;17.2;41.0
77469;BME280;68840;50.272;12.818;2023-05-01T10:12:05;95882;;;17.3;40.1
77469;BME280;68840;50.272;12.818;2023-05-01T10:14:06;95877;;;17.4;38.9
77469;BME280;68840;50.272;12.818;2023-05-01T10:16:16;95875;;;17.4;39.7
77469;BME280;68840;50.272;12.818;2023-05-01T10:18:06;95876;;;17.4;43.3
77469;BME280;68840;50.272;12.818;2023-05-01T10:20:07;95880;;;17.4;39.0
77469;BME280;68840;50.272;12.818;2023-05-01T10:22:05;95879;;;17.4;39.0
77469;BME280;68840;50.272;12.818;2023-05-01T10:24:07;95879;;;17.4;39.9
77469;BME280;68840;50.272;12.818;2023-05-01T10:26:07;95875;;;17.5;39.3
77469;BME280;68840;50.272;12.818;2023-05-01T10:28:07;95873;;;17.5;40.7
77469;BME280;68840;50.272;12.818;2023-05-01T10:30:07;95868;;;17.6;38.1
77469;BME280;68840;50.272;12.818;2023-05-01T10:32:06;95862;;;17.6;38.9
77469;BME280;68840;50.272;12.818;2023-05-01T10:34:05;95860;;;17.7;37.6
77469;BME280;68840;50.272;12.818;2023-05-01T10:36:14;95858;;;17.7;37.8
77469;BME280;68840;50.272;12.818;2023-05-01T10:38:09;95862;;;17.7;39.4
77469;BME280;68840;50.272;12.818;2023-05-01T10:42:09;95861;;;17.8;40.4
77469;BME280;68840;50.272;12.818;2023-05-01T10:44:18;95855;;;17.9;41.0
77469;BME280;68840;50.272;12.818;2023-05-01T10:46:31;95856;;;18.0;40.6
77469;BME280;68840;50.272;12.818;2023-05-01T10:48:06;95851;;;18.1;41.9
77469;BME280;68840;50.272;12.818;2023-05-01T10:50:06;95848;;;18.1;40.9
77469;BME280;68840;50.272;12.818;2023-05-01T10:52:05;95847;;;18.2;40.9
77469;BME280;68840;50.272;12.818;2023-05-01T10:54:23;95840;;;18.2;40.6
77469;BME280;68840;50.272;12.818;2023-05-01T10:58:05;95838;;;18.3;40.6
77469;BME280;68840;50.272;12.818;2023-05-01T11:00:14;95834;;;18.4;40.3
77469;BME280;68840;50.272;12.818;2023-05-01T11:02:23;95831;;;18.4;42.2
77469;BME280;68840;50.272;12.818;2023-05-01T11:06:07;95824;;;18.6;39.6
77469;BME280;68840;50.272;12.818;2023-05-01T11:08:31;95817;;;18.6;39.5
77469;BME280;68840;50.272;12.818;2023-05-01T11:10:30;95812;;;18.6;40.1
77469;BME280;68840;50.272;12.818;2023-05-01T11:12:06;95810;;;18.6;39.3
77469;BME280;68840;50.272;12.818;2023-05-01T11:14:07;95810;;;18.6;38.6
77469;BME280;68840;50.272;12.818;2023-05-01T11:16:39;95809;;;18.6;40.8
77469;BME280;68840;50.272;12.818;2023-05-01T11:18:06;95809;;;18.5;40.6
77469;BME280;68840;50.272;12.818;2023-05-01T11:20:05;95806;;;18.5;39.0
77469;BME280;68840;50.272;12.818;2023-05-01T11:22:11;95806;;;18.5;41.4